sensor_id;sensor_type;location;lat;lon;timestamp;temperature;humidity
10417;DHT22;62605;49.432;8.680;2023-05-07T00:01:04;16.80;99.90
10417;DHT22;62605;49.432;8.680;2023-05-07T00:03:32;16.80;99.90
10417;DHT22;62605;49.432;8.680;2023-05-07T00:05:59;16.70;99.90
10417;DHT22;62605;49.432;8.680;2023-05-07T00:08:26;16.70;99.90
10417;DHT22;62605;49.432;8.680;2023-05-07T00:10:53;16.50;99.90
10417;DHT22;62605;49.432;8.680;2023-05-07T00:13:22;16.40;99.90
10417;DHT22;62605;49.432;8.680;2023-05-07T00:15:49;16.20;99.90
10417;DHT22;62605;49.432;8.680;2023-05-07T00:18:16;16.10;99.90
10417;DHT22;62605;49.432;8.680;2023-05-07T00:20:46;16.00;99.90
10417;DHT22;62605;49.432;8.680;2023-05-07T00:23:13;16.00;99.90
10417;DHT22;62605;49.432;8.680;2023-05-07T00:25:40;15.90;99.90
10417;DHT22;62605;49.432;8.680;2023-05-07T00:28:07;16.00;99.90
10417;DHT22;62605;49.432;8.680;2023-05-07T00:30:35;15.90;99.90
10417;DHT22;62605;49.432;8.680;2023-05-07T00:33:02;16.00;99.90
10417;DHT22;62605;49.432;8.680;2023-05-07T00:35:30;16.10;99.90
10417;DHT22;62605;49.432;8.680;2023-05-07T00:37:57;16.10;99.90
10417;DHT22;62605;49.432;8.680;2023-05-07T00:40:24;16.20;99.90
10417;DHT22;62605;49.432;8.680;2023-05-07T00:42:51;16.30;99.90
10417;DHT22;62605;49.432;8.680;2023-05-07T00:45:23;16.40;99.90
10417;DHT22;62605;49.432;8.680;2023-05-07T00:47:54;16.30;99.90
10417;DHT22;62605;49.432;8.680;2023-05-07T00:50:21;16.30;99.90
10417;DHT22;62605;49.432;8.680;2023-05-07T00:52:48;16.30;99.90
10417;DHT22;62605;49.432;8.680;2023-05-07T00:55:15;16.40;99.90
10417;DHT22;62605;49.432;8.680;2023-05-07T00:57:44;16.60;99.90
10417;DHT22;62605;49.432;8.680;2023-05-07T01:00:17;16.70;99.90
10417;DHT22;62605;49.432;8.680;2023-05-07T01:02:45;16.70;99.90
10417;DHT22;62605;49.432;8.680;2023-05-07T01:05:24;16.70;99.90
10417;DHT22;62605;49.432;8.680;2023-05-07T01:07:54;16.80;99.90
10417;DHT22;62605;49.432;8.680;2023-05-07T01:10:22;16.80;99.90
10417;DHT22;62605;49.432;8.680;2023-05-07T01:12:50;16.80;99.90
10417;DHT22;62605;49.432;8.680;2023-05-07T01:15:18;16.80;99.90
10417;DHT22;62605;49.432;8.680;2023-05-07T01:17:45;16.80;99.90
10417;DHT22;62605;49.432;8.680;2023-05-07T01:20:15;16.80;99.90
10417;DHT22;62605;49.432;8.680;2023-05-07T01:22:43;16.80;99.90
10417;DHT22;62605;49.432;8.680;2023-05-07T01:25:11;16.80;99.90
10417;DHT22;62605;49.432;8.680;2023-05-07T01:27:39;16.80;99.90
10417;DHT22;62605;49.432;8.680;2023-05-07T01:30:07;16.90;99.90
10417;DHT22;62605;49.432;8.680;2023-05-07T01:32:37;16.80;99.90
10417;DHT22;62605;49.432;8.680;2023-05-07T01:35:07;16.80;99.90
10417;DHT22;62605;49.432;8.680;2023-05-07T01:37:35;16.70;99.90
10417;DHT22;62605;49.432;8.680;2023-05-07T01:40:05;16.80;99.90
10417;DHT22;62605;49.432;8.680;2023-05-07T01:42:33;16.80;99.90
10417;DHT22;62605;49.432;8.680;2023-05-07T01:45:00;16.80;99.90
10417;DHT22;62605;49.432;8.680;2023-05-07T01:47:36;16.80;99.90
10417;DHT22;62605;49.432;8.680;2023-05-07T01:50:04;16.70;99.90
10417;DHT22;62605;49.432;8.680;2023-05-07T01:52:44;16.80;99.90
10417;DHT22;62605;49.432;8.680;2023-05-07T01:55:16;16.70;99.90
10417;DHT22;62605;49.432;8.680;2023-05-07T01:57:46;16.80;99.90
10417;DHT22;62605;49.432;8.680;2023-05-07T02:00:13;16.80;99.90
10417;DHT22;62605;49.432;8.680;2023-05-07T02:02:48;16.90;99.90
10417;DHT22;62605;49.432;8.680;2023-05-07T02:05:15;17.00;99.90
10417;DHT22;62605;49.432;8.680;2023-05-07T02:07:42;16.90;99.90
10417;DHT22;62605;49.432;8.680;2023-05-07T02:10:10;16.90;99.90
10417;DHT22;62605;49.432;8.680;2023-05-07T02:12:38;17.00;99.90
10417;DHT22;62605;49.432;8.680;2023-05-07T02:15:06;17.00;99.90
10417;DHT22;62605;49.432;8.680;2023-05-07T02:17:33;17.00;99.90
10417;DHT22;62605;49.432;8.680;2023-05-07T02:20:01;17.00;99.90
10417;DHT22;62605;49.432;8.680;2023-05-07T02:22:29;16.90;99.90
10417;DHT22;62605;49.432;8.680;2023-05-07T02:24:58;17.00;99.90
10417;DHT22;62605;49.432;8.680;2023-05-07T02:27:26;17.00;99.90
10417;DHT22;62605;49.432;8.680;2023-05-07T02:29:54;17.00;99.90
10417;DHT22;62605;49.432;8.680;2023-05-07T02:32:21;17.10;99.90
10417;DHT22;62605;49.432;8.680;2023-05-07T02:34:50;17.10;99.90
10417;DHT22;62605;49.432;8.680;2023-05-07T02:37:17;17.00;99.90
10417;DHT22;62605;49.432;8.680;2023-05-07T02:39:47;17.00;99.90
10417;DHT22;62605;49.432;8.680;2023-05-07T02:42:15;16.90;99.90
10417;DHT22;62605;49.432;8.680;2023-05-07T02:44:42;17.00;99.90
10417;DHT22;62605;49.432;8.680;2023-05-07T02:47:10;16.90;99.90
10417;DHT22;62605;49.432;8.680;2023-05-07T02:49:38;16.80;99.90
10417;DHT22;62605;49.432;8.680;2023-05-07T02:52:06;16.80;99.90
10417;DHT22;62605;49.432;8.680;2023-05-07T02:54:39;16.80;99.90
10417;DHT22;62605;49.432;8.680;2023-05-07T02:57:13;16.80;99.90
10417;DHT22;62605;49.432;8.680;2023-05-07T02:59:41;16.30;99.90
10417;DHT22;62605;49.432;8.680;2023-05-07T03:02:09;15.90;99.90
10417;DHT22;62605;49.432;8.680;2023-05-07T03:04:37;15.70;99.90
10417;DHT22;62605;49.432;8.680;2023-05-07T03:07:04;15.60;99.90
10417;DHT22;62605;49.432;8.680;2023-05-07T03:09:33;15.40;99.90
10417;DHT22;62605;49.432;8.680;2023-05-07T03:12:00;15.40;99.90
10417;DHT22;62605;49.432;8.680;2023-05-07T03:14:28;15.30;99.90
10417;DHT22;62605;49.432;8.680;2023-05-07T03:16:57;15.20;99.90
10417;DHT22;62605;49.432;8.680;2023-05-07T03:19:26;15.30;99.90
10417;DHT22;62605;49.432;8.680;2023-05-07T03:21:54;15.10;99.90
10417;DHT22;62605;49.432;8.680;2023-05-07T03:24:21;15.00;99.90
10417;DHT22;62605;49.432;8.680;2023-05-07T03:26:48;14.80;99.90
10417;DHT22;62605;49.432;8.680;2023-05-07T03:29:15;14.70;99.90
10417;DHT22;62605;49.432;8.680;2023-05-07T03:31:42;14.60;99.90
10417;DHT22;62605;49.432;8.680;2023-05-07T03:34:09;14.50;99.90
10417;DHT22;62605;49.432;8.680;2023-05-07T03:36:40;14.40;99.90
10417;DHT22;62605;49.432;8.680;2023-05-07T03:39:07;14.40;99.90
10417;DHT22;62605;49.432;8.680;2023-05-07T03:41:38;14.40;99.90
10417;DHT22;62605;49.432;8.680;2023-05-07T03:44:05;14.30;99.90
10417;DHT22;62605;49.432;8.680;2023-05-07T03:46:32;14.20;99.90
10417;DHT22;62605;49.432;8.680;2023-05-07T03:48:59;14.20;99.90
10417;DHT22;62605;49.432;8.680;2023-05-07T03:51:26;14.10;99.90
10417;DHT22;62605;49.432;8.680;2023-05-07T03:53:56;14.00;99.90
10417;DHT22;62605;49.432;8.680;2023-05-07T03:56:23;14.00;99.90
10417;DHT22;62605;49.432;8.680;2023-05-07T03:58:52;13.90;99.90
10417;DHT22;62605;49.432;8.680;2023-05-07T04:01:19;13.80;99.90
10417;DHT22;62605;49.432;8.680;2023-05-07T04:03:46;13.70;99.90
10417;DHT22;62605;49.432;8.680;2023-05-07T04:06:13;13.70;99.90
10417;DHT22;62605;49.432;8.680;2023-05-07T04:08:40;13.70;99.90
10417;DHT22;62605;49.432;8.680;2023-05-07T04:11:09;13.80;99.90
10417;DHT22;62605;49.432;8.680;2023-05-07T04:13:36;13.70;99.90
10417;DHT22;62605;49.432;8.680;2023-05-07T04:16:12;13.70;99.90
10417;DHT22;62605;49.432;8.680;2023-05-07T04:18:48;13.60;99.90
10417;DHT22;62605;49.432;8.680;2023-05-07T04:21:16;13.70;99.90
10417;DHT22;62605;49.432;8.680;2023-05-07T04:23:46;13.60;99.90
10417;DHT22;62605;49.432;8.680;2023-05-07T04:26:15;13.50;99.90
10417;DHT22;62605;49.432;8.680;2023-05-07T04:28:43;13.50;99.90
10417;DHT22;62605;49.432;8.680;2023-05-07T04:31:10;13.60;99.90
10417;DHT22;62605;49.432;8.680;2023-05-07T04:33:38;13.60;99.90
10417;DHT22;62605;49.432;8.680;2023-05-07T04:36:05;13.60;99.90
10417;DHT22;62605;49.432;8.680;2023-05-07T04:38:33;13.70;99.90
10417;DHT22;62605;49.432;8.680;2023-05-07T04:41:03;13.80;99.90
10417;DHT22;62605;49.432;8.680;2023-05-07T04:43:32;13.70;99.90
10417;DHT22;62605;49.432;8.680;2023-05-07T04:45:59;13.80;99.90
10417;DHT22;62605;49.432;8.680;2023-05-07T04:48:28;13.80;99.90
10417;DHT22;62605;49.432;8.680;2023-05-07T04:50:57;13.90;99.90
10417;DHT22;62605;49.432;8.680;2023-05-07T04:53:24;13.90;99.90
10417;DHT22;62605;49.432;8.680;2023-05-07T04:55:55;13.90;99.90
10417;DHT22;62605;49.432;8.680;2023-05-07T04:58:22;13.90;99.90
10417;DHT22;62605;49.432;8.680;2023-05-07T05:00:51;13.90;99.90
10417;DHT22;62605;49.432;8.680;2023-05-07T05:03:18;13.90;99.90
10417;DHT22;62605;49.432;8.680;2023-05-07T05:05:46;13.80;99.90
10417;DHT22;62605;49.432;8.680;2023-05-07T05:08:13;13.90;99.90
10417;DHT22;62605;49.432;8.680;2023-05-07T05:10:41;13.90;99.90
10417;DHT22;62605;49.432;8.680;2023-05-07T05:13:09;13.90;99.90
10417;DHT22;62605;49.432;8.680;2023-05-07T05:15:39;13.90;99.90
10417;DHT22;62605;49.432;8.680;2023-05-07T05:18:08;14.00;99.90
10417;DHT22;62605;49.432;8.680;2023-05-07T05:20:35;14.00;99.90
10417;DHT22;62605;49.432;8.680;2023-05-07T05:23:07;13.90;99.90
10417;DHT22;62605;49.432;8.680;2023-05-07T05:32:02;14.10;99.90
10417;DHT22;62605;49.432;8.680;2023-05-07T05:34:30;14.10;99.90
10417;DHT22;62605;49.432;8.680;2023-05-07T05:37:00;14.20;99.90
10417;DHT22;62605;49.432;8.680;2023-05-07T05:39:27;14.30;99.90
10417;DHT22;62605;49.432;8.680;2023-05-07T05:41:55;14.40;99.90
10417;DHT22;62605;49.432;8.680;2023-05-07T05:44:22;14.50;99.90
10417;DHT22;62605;49.432;8.680;2023-05-07T05:46:49;14.60;99.90
10417;DHT22;62605;49.432;8.680;2023-05-07T05:49:16;14.60;99.90
10417;DHT22;62605;49.432;8.680;2023-05-07T05:51:45;14.60;99.90
10417;DHT22;62605;49.432;8.680;2023-05-07T05:54:11;14.70;99.90
10417;DHT22;62605;49.432;8.680;2023-05-07T05:56:38;14.80;99.90
10417;DHT22;62605;49.432;8.680;2023-05-07T05:59:05;14.90;99.90
10417;DHT22;62605;49.432;8.680;2023-05-07T06:01:33;15.20;99.90
10417;DHT22;62605;49.432;8.680;2023-05-07T06:04:00;15.20;99.90
10417;DHT22;62605;49.432;8.680;2023-05-07T06:06:27;15.40;99.90
10417;DHT22;62605;49.432;8.680;2023-05-07T06:08:56;15.50;99.90
10417;DHT22;62605;49.432;8.680;2023-05-07T06:11:24;15.40;99.90
10417;DHT22;62605;49.432;8.680;2023-05-07T06:13:51;15.70;99.90
10417;DHT22;62605;49.432;8.680;2023-05-07T06:16:18;15.70;99.90
10417;DHT22;62605;49.432;8.680;2023-05-07T06:18:45;15.70;99.90
10417;DHT22;62605;49.432;8.680;2023-05-07T06:21:13;15.60;99.90
10417;DHT22;62605;49.432;8.680;2023-05-07T06:23:40;15.70;99.90
10417;DHT22;62605;49.432;8.680;2023-05-07T06:26:09;15.80;99.90
10417;DHT22;62605;49.432;8.680;2023-05-07T06:28:36;15.90;99.90
10417;DHT22;62605;49.432;8.680;2023-05-07T06:31:13;15.80;99.90
10417;DHT22;62605;49.432;8.680;2023-05-07T06:33:40;16.00;99.90
10417;DHT22;62605;49.432;8.680;2023-05-07T06:36:07;15.90;99.90
10417;DHT22;62605;49.432;8.680;2023-05-07T06:38:34;15.90;99.90
10417;DHT22;62605;49.432;8.680;2023-05-07T06:41:01;16.00;99.90
10417;DHT22;62605;49.432;8.680;2023-05-07T06:43:30;16.10;99.90
10417;DHT22;62605;49.432;8.680;2023-05-07T06:45:56;16.20;99.90
10417;DHT22;62605;49.432;8.680;2023-05-07T06:48:25;16.40;99.90
10417;DHT22;62605;49.432;8.680;2023-05-07T06:50:52;16.30;99.90
10417;DHT22;62605;49.432;8.680;2023-05-07T06:53:21;16.20;99.90
10417;DHT22;62605;49.432;8.680;2023-05-07T06:55:48;16.30;99.90
10417;DHT22;62605;49.432;8.680;2023-05-07T06:58:16;16.70;99.90
10417;DHT22;62605;49.432;8.680;2023-05-07T07:00:45;16.70;99.90
10417;DHT22;62605;49.432;8.680;2023-05-07T07:03:12;16.80;99.90
10417;DHT22;62605;49.432;8.680;2023-05-07T07:05:40;16.80;99.90
10417;DHT22;62605;49.432;8.680;2023-05-07T07:08:08;16.70;99.90
10417;DHT22;62605;49.432;8.680;2023-05-07T07:10:36;16.90;99.90
10417;DHT22;62605;49.432;8.680;2023-05-07T07:13:03;16.90;99.90
10417;DHT22;62605;49.432;8.680;2023-05-07T07:15:30;17.10;99.90
10417;DHT22;62605;49.432;8.680;2023-05-07T07:17:59;17.30;99.90
10417;DHT22;62605;49.432;8.680;2023-05-07T07:20:26;17.30;99.90
10417;DHT22;62605;49.432;8.680;2023-05-07T07:23:02;17.20;99.90
10417;DHT22;62605;49.432;8.680;2023-05-07T07:25:30;17.50;99.90
10417;DHT22;62605;49.432;8.680;2023-05-07T07:27:57;17.60;99.90
10417;DHT22;62605;49.432;8.680;2023-05-07T07:30:25;17.80;99.90
10417;DHT22;62605;49.432;8.680;2023-05-07T07:32:53;18.00;99.90
10417;DHT22;62605;49.432;8.680;2023-05-07T07:35:22;18.10;99.90
10417;DHT22;62605;49.432;8.680;2023-05-07T07:37:48;18.40;99.90
10417;DHT22;62605;49.432;8.680;2023-05-07T07:40:16;18.40;99.90
10417;DHT22;62605;49.432;8.680;2023-05-07T07:42:43;18.20;99.90
10417;DHT22;62605;49.432;8.680;2023-05-07T07:45:10;18.10;99.90
10417;DHT22;62605;49.432;8.680;2023-05-07T07:47:38;18.20;1.00
10417;DHT22;62605;49.432;8.680;2023-05-07T07:50:06;18.10;1.00
10417;DHT22;62605;49.432;8.680;2023-05-07T07:52:34;18.30;1.00
10417;DHT22;62605;49.432;8.680;2023-05-07T07:55:02;18.40;1.00
10417;DHT22;62605;49.432;8.680;2023-05-07T07:57:30;18.50;1.00
10417;DHT22;62605;49.432;8.680;2023-05-07T07:59:57;18.60;1.00
10417;DHT22;62605;49.432;8.680;2023-05-07T08:02:25;18.50;1.00
10417;DHT22;62605;49.432;8.680;2023-05-07T08:04:52;18.40;1.00
10417;DHT22;62605;49.432;8.680;2023-05-07T08:07:19;18.50;1.00
10417;DHT22;62605;49.432;8.680;2023-05-07T08:09:49;18.60;1.00
10417;DHT22;62605;49.432;8.680;2023-05-07T08:12:16;18.80;1.00
10417;DHT22;62605;49.432;8.680;2023-05-07T08:14:43;19.40;1.00
10417;DHT22;62605;49.432;8.680;2023-05-07T08:17:10;19.60;1.00
10417;DHT22;62605;49.432;8.680;2023-05-07T08:19:38;19.50;1.00
10417;DHT22;62605;49.432;8.680;2023-05-07T08:22:05;19.20;1.00
10417;DHT22;62605;49.432;8.680;2023-05-07T08:24:32;19.20;1.00
10417;DHT22;62605;49.432;8.680;2023-05-07T08:27:01;19.50;1.00
10417;DHT22;62605;49.432;8.680;2023-05-07T08:29:28;19.60;1.00
10417;DHT22;62605;49.432;8.680;2023-05-07T08:31:55;19.50;1.00
10417;DHT22;62605;49.432;8.680;2023-05-07T08:34:23;19.60;1.00
10417;DHT22;62605;49.432;8.680;2023-05-07T08:36:50;19.60;1.00
10417;DHT22;62605;49.432;8.680;2023-05-07T08:39:17;19.60;1.00
10417;DHT22;62605;49.432;8.680;2023-05-07T08:41:44;19.50;1.00
10417;DHT22;62605;49.432;8.680;2023-05-07T08:44:14;19.70;1.00
10417;DHT22;62605;49.432;8.680;2023-05-07T08:46:41;19.70;1.00
10417;DHT22;62605;49.432;8.680;2023-05-07T08:49:09;19.90;1.00
10417;DHT22;62605;49.432;8.680;2023-05-07T08:51:36;20.00;1.00
10417;DHT22;62605;49.432;8.680;2023-05-07T08:54:04;19.90;1.00
10417;DHT22;62605;49.432;8.680;2023-05-07T08:56:32;20.30;1.00
10417;DHT22;62605;49.432;8.680;2023-05-07T08:59:00;20.30;1.00
10417;DHT22;62605;49.432;8.680;2023-05-07T09:01:30;20.40;1.00
10417;DHT22;62605;49.432;8.680;2023-05-07T09:03:58;20.40;1.00
10417;DHT22;62605;49.432;8.680;2023-05-07T09:06:25;20.60;1.00
10417;DHT22;62605;49.432;8.680;2023-05-07T09:08:54;21.20;1.00
10417;DHT22;62605;49.432;8.680;2023-05-07T09:11:22;21.40;1.00
10417;DHT22;62605;49.432;8.680;2023-05-07T09:13:51;21.00;1.00
10417;DHT22;62605;49.432;8.680;2023-05-07T09:16:20;21.30;1.00
10417;DHT22;62605;49.432;8.680;2023-05-07T09:18:51;20.80;1.00
10417;DHT22;62605;49.432;8.680;2023-05-07T09:21:20;21.00;1.00
10417;DHT22;62605;49.432;8.680;2023-05-07T09:23:51;21.80;1.00
10417;DHT22;62605;49.432;8.680;2023-05-07T09:26:21;22.10;1.00
10417;DHT22;62605;49.432;8.680;2023-05-07T09:28:48;21.60;1.00
10417;DHT22;62605;49.432;8.680;2023-05-07T09:31:18;21.40;1.00
10417;DHT22;62605;49.432;8.680;2023-05-07T09:33:46;21.80;1.00
10417;DHT22;62605;49.432;8.680;2023-05-07T09:36:14;21.50;1.00
10417;DHT22;62605;49.432;8.680;2023-05-07T09:38:41;20.80;1.00
10417;DHT22;62605;49.432;8.680;2023-05-07T09:41:10;20.70;1.00
10417;DHT22;62605;49.432;8.680;2023-05-07T09:43:39;20.90;1.00
10417;DHT22;62605;49.432;8.680;2023-05-07T09:46:07;20.90;1.00
10417;DHT22;62605;49.432;8.680;2023-05-07T09:48:37;21.10;1.00
10417;DHT22;62605;49.432;8.680;2023-05-07T09:51:18;21.10;1.00
10417;DHT22;62605;49.432;8.680;2023-05-07T09:53:48;21.10;1.00
10417;DHT22;62605;49.432;8.680;2023-05-07T09:56:18;21.10;1.00
10417;DHT22;62605;49.432;8.680;2023-05-07T09:58:45;21.20;1.00
10417;DHT22;62605;49.432;8.680;2023-05-07T10:01:13;21.10;1.00
10417;DHT22;62605;49.432;8.680;2023-05-07T10:03:40;21.50;1.00
10417;DHT22;62605;49.432;8.680;2023-05-07T10:06:09;21.70;1.00
10417;DHT22;62605;49.432;8.680;2023-05-07T10:08:37;21.70;1.00
10417;DHT22;62605;49.432;8.680;2023-05-07T10:11:06;21.80;1.00
10417;DHT22;62605;49.432;8.680;2023-05-07T10:13:36;21.70;1.00
10417;DHT22;62605;49.432;8.680;2023-05-07T10:16:05;21.60;1.00
10417;DHT22;62605;49.432;8.680;2023-05-07T10:18:34;21.70;1.00
10417;DHT22;62605;49.432;8.680;2023-05-07T10:21:07;21.70;1.00
10417;DHT22;62605;49.432;8.680;2023-05-07T10:23:35;21.80;1.00
10417;DHT22;62605;49.432;8.680;2023-05-07T10:26:06;22.00;99.90
10417;DHT22;62605;49.432;8.680;2023-05-07T10:28:37;21.90;99.90
10417;DHT22;62605;49.432;8.680;2023-05-07T10:31:15;22.00;99.90
10417;DHT22;62605;49.432;8.680;2023-05-07T10:33:45;21.80;99.90
10417;DHT22;62605;49.432;8.680;2023-05-07T10:36:12;21.90;99.90
10417;DHT22;62605;49.432;8.680;2023-05-07T10:38:40;22.00;99.90
10417;DHT22;62605;49.432;8.680;2023-05-07T10:41:08;22.30;99.90
10417;DHT22;62605;49.432;8.680;2023-05-07T10:43:40;22.40;99.90
10417;DHT22;62605;49.432;8.680;2023-05-07T10:46:16;22.40;99.90
10417;DHT22;62605;49.432;8.680;2023-05-07T10:49:07;22.50;99.90
10417;DHT22;62605;49.432;8.680;2023-05-07T10:51:37;22.60;99.90
10417;DHT22;62605;49.432;8.680;2023-05-07T10:54:22;23.20;99.90
10417;DHT22;62605;49.432;8.680;2023-05-07T10:56:54;23.40;99.90
10417;DHT22;62605;49.432;8.680;2023-05-07T10:59:34;22.90;99.90
10417;DHT22;62605;49.432;8.680;2023-05-07T11:02:07;23.50;99.90
10417;DHT22;62605;49.432;8.680;2023-05-07T11:04:36;23.40;99.90
10417;DHT22;62605;49.432;8.680;2023-05-07T11:07:26;23.80;99.90
10417;DHT22;62605;49.432;8.680;2023-05-07T11:09:58;23.90;99.90
10417;DHT22;62605;49.432;8.680;2023-05-07T11:12:53;24.00;99.90
10417;DHT22;62605;49.432;8.680;2023-05-07T11:15:44;24.30;99.90
10417;DHT22;62605;49.432;8.680;2023-05-07T11:28:58;23.30;99.90
10417;DHT22;62605;49.432;8.680;2023-05-07T11:31:27;23.20;99.90
10417;DHT22;62605;49.432;8.680;2023-05-07T11:33:55;23.20;99.90
10417;DHT22;62605;49.432;8.680;2023-05-07T11:36:24;23.00;99.90
10417;DHT22;62605;49.432;8.680;2023-05-07T11:38:52;23.00;99.90
10417;DHT22;62605;49.432;8.680;2023-05-07T11:41:19;23.20;99.90
10417;DHT22;62605;49.432;8.680;2023-05-07T11:43:54;23.20;99.90
10417;DHT22;62605;49.432;8.680;2023-05-07T11:46:23;23.20;99.90
10417;DHT22;62605;49.432;8.680;2023-05-07T11:48:51;23.30;99.90
10417;DHT22;62605;49.432;8.680;2023-05-07T11:51:23;23.10;99.90
10417;DHT22;62605;49.432;8.680;2023-05-07T11:53:52;23.30;99.90
10417;DHT22;62605;49.432;8.680;2023-05-07T11:56:19;23.20;99.90
10417;DHT22;62605;49.432;8.680;2023-05-07T11:58:47;23.10;99.90
10417;DHT22;62605;49.432;8.680;2023-05-07T12:01:15;23.30;99.90
10417;DHT22;62605;49.432;8.680;2023-05-07T12:03:45;23.70;99.90
10417;DHT22;62605;49.432;8.680;2023-05-07T12:06:14;23.70;99.90
10417;DHT22;62605;49.432;8.680;2023-05-07T12:08:43;24.20;99.90
10417;DHT22;62605;49.432;8.680;2023-05-07T12:11:13;25.30;99.90
10417;DHT22;62605;49.432;8.680;2023-05-07T12:13:41;25.70;99.90
10417;DHT22;62605;49.432;8.680;2023-05-07T12:16:09;26.30;99.90
10417;DHT22;62605;49.432;8.680;2023-05-07T12:18:37;26.30;99.90
10417;DHT22;62605;49.432;8.680;2023-05-07T12:21:08;25.80;99.90
10417;DHT22;62605;49.432;8.680;2023-05-07T12:34:19;23.90;86.70
10417;DHT22;62605;49.432;8.680;2023-05-07T12:36:50;23.90;83.90
10417;DHT22;62605;49.432;8.680;2023-05-07T12:39:17;24.00;79.90
10417;DHT22;62605;49.432;8.680;2023-05-07T12:41:54;23.90;74.80
10417;DHT22;62605;49.432;8.680;2023-05-07T12:44:22;23.80;77.20
10417;DHT22;62605;49.432;8.680;2023-05-07T12:46:50;23.80;71.50
10417;DHT22;62605;49.432;8.680;2023-05-07T12:49:18;23.70;68.20
10417;DHT22;62605;49.432;8.680;2023-05-07T12:51:48;23.60;62.80
10417;DHT22;62605;49.432;8.680;2023-05-07T12:54:27;23.90;60.20
10417;DHT22;62605;49.432;8.680;2023-05-07T12:57:00;23.70;55.90
10417;DHT22;62605;49.432;8.680;2023-05-07T12:59:31;23.70;50.60
10417;DHT22;62605;49.432;8.680;2023-05-07T13:01:58;23.70;59.30
10417;DHT22;62605;49.432;8.680;2023-05-07T13:04:25;23.80;47.10
10417;DHT22;62605;49.432;8.680;2023-05-07T13:06:57;23.90;50.40
10417;DHT22;62605;49.432;8.680;2023-05-07T13:09:24;23.90;43.50
10417;DHT22;62605;49.432;8.680;2023-05-07T13:11:51;23.80;42.30
10417;DHT22;62605;49.432;8.680;2023-05-07T13:14:18;23.70;33.70
10417;DHT22;62605;49.432;8.680;2023-05-07T13:16:46;23.80;41.20
10417;DHT22;62605;49.432;8.680;2023-05-07T13:19:13;23.80;37.30
10417;DHT22;62605;49.432;8.680;2023-05-07T13:21:40;23.50;33.80
10417;DHT22;62605;49.432;8.680;2023-05-07T13:24:09;23.40;27.20
10417;DHT22;62605;49.432;8.680;2023-05-07T13:26:36;23.30;25.90
10417;DHT22;62605;49.432;8.680;2023-05-07T13:29:03;23.20;31.40
10417;DHT22;62605;49.432;8.680;2023-05-07T13:31:30;23.10;47.30
10417;DHT22;62605;49.432;8.680;2023-05-07T13:33:57;23.00;22.90
10417;DHT22;62605;49.432;8.680;2023-05-07T13:36:24;23.00;25.10
10417;DHT22;62605;49.432;8.680;2023-05-07T13:38:52;22.90;20.40
10417;DHT22;62605;49.432;8.680;2023-05-07T13:41:20;22.90;18.80
10417;DHT22;62605;49.432;8.680;2023-05-07T13:43:47;22.80;22.30
10417;DHT22;62605;49.432;8.680;2023-05-07T13:46:15;22.80;22.70
10417;DHT22;62605;49.432;8.680;2023-05-07T13:48:44;22.60;26.40
10417;DHT22;62605;49.432;8.680;2023-05-07T13:51:11;22.50;26.90
10417;DHT22;62605;49.432;8.680;2023-05-07T13:53:38;22.50;26.00
10417;DHT22;62605;49.432;8.680;2023-05-07T13:59:29;22.30;36.20
10417;DHT22;62605;49.432;8.680;2023-05-07T14:01:56;22.00;82.40
10417;DHT22;62605;49.432;8.680;2023-05-07T14:04:23;21.50;72.00
10417;DHT22;62605;49.432;8.680;2023-05-07T14:06:50;21.20;85.60
10417;DHT22;62605;49.432;8.680;2023-05-07T14:09:17;20.90;92.70
10417;DHT22;62605;49.432;8.680;2023-05-07T14:11:44;20.60;99.90
10417;DHT22;62605;49.432;8.680;2023-05-07T14:14:15;20.30;99.90
10417;DHT22;62605;49.432;8.680;2023-05-07T14:16:44;19.80;99.90
10417;DHT22;62605;49.432;8.680;2023-05-07T14:19:11;19.20;1.00
10417;DHT22;62605;49.432;8.680;2023-05-07T14:21:38;18.60;99.90
10417;DHT22;62605;49.432;8.680;2023-05-07T14:24:06;18.30;99.90
10417;DHT22;62605;49.432;8.680;2023-05-07T14:26:34;18.00;99.90
10417;DHT22;62605;49.432;8.680;2023-05-07T14:29:01;17.50;99.90
10417;DHT22;62605;49.432;8.680;2023-05-07T14:31:28;16.90;99.90
10417;DHT22;62605;49.432;8.680;2023-05-07T14:34:00;16.70;99.90
10417;DHT22;62605;49.432;8.680;2023-05-07T14:36:27;16.80;99.90
10417;DHT22;62605;49.432;8.680;2023-05-07T14:38:55;16.80;99.90
10417;DHT22;62605;49.432;8.680;2023-05-07T14:41:24;17.00;99.90
10417;DHT22;62605;49.432;8.680;2023-05-07T14:43:52;17.10;99.90
10417;DHT22;62605;49.432;8.680;2023-05-07T14:46:20;16.90;99.90
10417;DHT22;62605;49.432;8.680;2023-05-07T14:48:47;16.50;99.90
10417;DHT22;62605;49.432;8.680;2023-05-07T14:51:16;16.40;99.90
10417;DHT22;62605;49.432;8.680;2023-05-07T14:53:43;16.30;99.90
10417;DHT22;62605;49.432;8.680;2023-05-07T14:56:10;16.20;99.90
10417;DHT22;62605;49.432;8.680;2023-05-07T14:58:37;16.10;99.90
10417;DHT22;62605;49.432;8.680;2023-05-07T15:01:04;15.90;99.90
10417;DHT22;62605;49.432;8.680;2023-05-07T15:03:32;15.90;99.90
10417;DHT22;62605;49.432;8.680;2023-05-07T15:05:59;16.00;99.90
10417;DHT22;62605;49.432;8.680;2023-05-07T15:08:27;15.80;99.90
10417;DHT22;62605;49.432;8.680;2023-05-07T15:10:54;15.80;99.90
10417;DHT22;62605;49.432;8.680;2023-05-07T15:13:22;15.70;99.90
10417;DHT22;62605;49.432;8.680;2023-05-07T15:15:49;15.60;99.90
10417;DHT22;62605;49.432;8.680;2023-05-07T15:18:16;15.60;99.90
10417;DHT22;62605;49.432;8.680;2023-05-07T15:20:43;15.50;99.90
10417;DHT22;62605;49.432;8.680;2023-05-07T15:23:13;15.40;99.90
10417;DHT22;62605;49.432;8.680;2023-05-07T15:25:42;15.50;99.90
10417;DHT22;62605;49.432;8.680;2023-05-07T15:28:09;15.40;99.90
10417;DHT22;62605;49.432;8.680;2023-05-07T15:30:45;15.30;99.90
10417;DHT22;62605;49.432;8.680;2023-05-07T15:33:12;15.30;99.90
10417;DHT22;62605;49.432;8.680;2023-05-07T15:35:40;15.20;99.90
10417;DHT22;62605;49.432;8.680;2023-05-07T15:38:07;15.20;99.90
10417;DHT22;62605;49.432;8.680;2023-05-07T15:40:34;15.20;99.90
10417;DHT22;62605;49.432;8.680;2023-05-07T15:43:04;15.30;99.90
10417;DHT22;62605;49.432;8.680;2023-05-07T15:45:31;15.20;99.90
10417;DHT22;62605;49.432;8.680;2023-05-07T15:47:58;15.30;99.90
10417;DHT22;62605;49.432;8.680;2023-05-07T15:50:25;15.20;99.90
10417;DHT22;62605;49.432;8.680;2023-05-07T15:52:54;15.20;99.90
10417;DHT22;62605;49.432;8.680;2023-05-07T15:55:21;15.10;99.90
10417;DHT22;62605;49.432;8.680;2023-05-07T15:57:48;15.10;99.90
10417;DHT22;62605;49.432;8.680;2023-05-07T16:00:17;15.10;99.90
10417;DHT22;62605;49.432;8.680;2023-05-07T16:02:44;15.10;99.90
10417;DHT22;62605;49.432;8.680;2023-05-07T16:05:13;15.10;99.90
10417;DHT22;62605;49.432;8.680;2023-05-07T16:07:41;15.10;99.90
10417;DHT22;62605;49.432;8.680;2023-05-07T16:10:10;15.10;99.90
10417;DHT22;62605;49.432;8.680;2023-05-07T16:12:38;15.00;99.90